createdAt,value
2022-10-25T00:00:00.821Z,0.60
2022-10-25T00:01:02.191Z,0.70
2022-10-25T00:02:03.646Z,0.63
2022-10-25T00:03:06.292Z,0.70
2022-10-25T00:04:07.611Z,0.70
2022-10-25T00:05:11.978Z,0.90
2022-10-25T00:06:13.808Z,0.90
2022-10-25T00:07:15.332Z,0.83
2022-10-25T00:08:16.769Z,0.60
2022-10-25T00:09:18.114Z,0.63
2022-10-25T00:10:22.249Z,0.50
2022-10-25T00:11:28.240Z,0.93
2022-10-25T00:12:29.623Z,0.90
2022-10-25T00:13:31.090Z,0.67
2022-10-25T00:14:32.443Z,0.60
2022-10-25T00:15:33.784Z,0.70
2022-10-25T00:16:36.682Z,0.70
2022-10-25T00:17:37.971Z,0.80
2022-10-25T00:18:39.241Z,0.70
2022-10-25T00:19:40.577Z,0.73
2022-10-25T00:20:41.856Z,0.70
2022-10-25T00:21:43.139Z,0.90
2022-10-25T00:22:44.733Z,0.70
2022-10-25T00:23:46.704Z,0.70
2022-10-25T00:24:48.093Z,1.00
2022-10-25T00:25:49.416Z,0.97
2022-10-25T00:26:50.715Z,0.77
2022-10-25T00:27:52.022Z,0.70
2022-10-25T00:28:56.330Z,1.63
2022-10-25T00:29:57.614Z,0.77
2022-10-25T00:31:02.851Z,1.10
2022-10-25T00:32:04.154Z,0.53
2022-10-25T00:33:05.464Z,0.90
2022-10-25T00:34:06.821Z,0.70
2022-10-25T00:35:08.456Z,0.80
2022-10-25T00:36:14.425Z,0.80
2022-10-25T00:37:15.935Z,0.90
2022-10-25T00:38:17.222Z,0.80
2022-10-25T00:39:18.716Z,1.00
2022-10-25T00:40:20.069Z,0.70
2022-10-25T00:41:22.803Z,0.83
2022-10-25T00:42:25.838Z,0.70
2022-10-25T00:43:32.895Z,0.90
2022-10-25T00:44:34.203Z,0.77
2022-10-25T00:45:35.652Z,0.53
2022-10-25T00:46:36.954Z,0.70
2022-10-25T00:47:41.963Z,0.70
2022-10-25T00:48:52.867Z,0.77
2022-10-25T00:50:03.266Z,0.60
2022-10-25T00:51:04.756Z,0.93
2022-10-25T00:52:06.774Z,0.70
2022-10-25T00:53:11.244Z,0.90
2022-10-25T00:54:14.605Z,0.80
2022-10-25T00:55:18.637Z,0.80
2022-10-25T00:56:21.729Z,0.80
2022-10-25T00:57:42.857Z,0.80
2022-10-25T00:58:46.168Z,0.90
2022-10-25T00:59:48.008Z,0.80
2022-10-25T01:00:49.658Z,0.70
2022-10-25T01:01:53.791Z,0.90
2022-10-25T01:04:00.032Z,0.83
2022-10-25T01:05:02.107Z,0.83
2022-10-25T01:06:05.361Z,1.00
2022-10-25T01:07:06.817Z,0.70
2022-10-25T01:08:08.159Z,0.73
2022-10-25T01:09:10.426Z,1.00
2022-10-25T01:10:12.105Z,1.00
2022-10-25T01:11:13.572Z,0.90
2022-10-25T01:12:14.857Z,1.00
2022-10-25T01:13:16.325Z,0.87
2022-10-25T01:14:17.762Z,1.03
2022-10-25T01:15:20.380Z,0.83
2022-10-25T01:16:51.225Z,1.00
2022-10-25T01:18:31.167Z,0.90
2022-10-25T01:19:50.513Z,0.90
2022-10-25T01:21:06.042Z,0.87
2022-10-25T01:22:28.718Z,1.00
2022-10-25T01:23:44.547Z,0.90
2022-10-25T01:24:54.708Z,0.90
2022-10-25T01:26:09.316Z,1.03
2022-10-25T01:27:10.577Z,0.77
2022-10-25T01:28:20.726Z,1.00
2022-10-25T01:29:40.322Z,1.03
2022-10-25T01:30:53.934Z,0.90
2022-10-25T01:31:59.773Z,0.93
2022-10-25T01:33:20.021Z,1.10
2022-10-25T01:34:30.146Z,0.97
2022-10-25T01:35:40.636Z,1.00
2022-10-25T01:36:45.767Z,0.90
2022-10-25T01:37:53.115Z,1.10
2022-10-25T01:39:00.311Z,1.20
2022-10-25T01:40:06.682Z,1.00
2022-10-25T01:41:11.731Z,1.17
2022-10-25T01:42:12.980Z,1.10
2022-10-25T01:43:29.752Z,0.80
2022-10-25T01:45:46.110Z,0.90
2022-10-25T01:46:53.119Z,1.23
2022-10-25T01:48:07.549Z,0.80
2022-10-25T01:49:11.987Z,0.93
2022-10-25T01:50:21.207Z,0.97
2022-10-25T01:51:22.476Z,0.93
2022-10-25T01:52:24.456Z,1.10
2022-10-25T01:53:25.751Z,1.00
2022-10-25T01:54:27.128Z,1.10
2022-10-25T01:55:34.555Z,1.10
2022-10-25T01:56:45.499Z,1.50
2022-10-25T01:58:01.443Z,1.30
2022-10-25T01:59:08.636Z,1.30
2022-10-25T02:00:20.036Z,1.20
2022-10-25T02:01:27.736Z,1.20
2022-10-25T02:02:32.918Z,1.07
2022-10-25T02:03:49.513Z,1.00
2022-10-25T02:04:56.529Z,1.00
2022-10-25T02:06:03.030Z,1.00
2022-10-25T02:07:07.614Z,1.23
2022-10-25T02:08:14.889Z,1.00
2022-10-25T02:09:18.775Z,1.00
2022-10-25T02:10:23.851Z,1.00
2022-10-25T02:11:26.567Z,0.83
2022-10-25T02:12:31.337Z,1.30
2022-10-25T02:13:38.777Z,0.70
2022-10-25T02:14:45.227Z,1.00
2022-10-25T02:15:49.615Z,1.10
2022-10-25T02:16:56.345Z,1.10
2022-10-25T02:18:03.596Z,0.93
2022-10-25T02:19:06.569Z,1.10
2022-10-25T02:20:08.711Z,1.00
2022-10-25T02:21:10.855Z,1.03
2022-10-25T02:22:13.299Z,1.10
2022-10-25T02:23:14.728Z,0.90
2022-10-25T02:24:18.080Z,1.17
2022-10-25T02:25:19.783Z,1.00
2022-10-25T02:26:21.688Z,1.10
2022-10-25T02:27:24.221Z,1.20
2022-10-25T02:28:28.119Z,0.93
2022-10-25T02:29:31.157Z,0.90
2022-10-25T02:30:33.776Z,1.00
2022-10-25T02:31:35.830Z,1.00
2022-10-25T02:32:37.227Z,1.30
2022-10-25T02:33:38.532Z,0.90
2022-10-25T02:34:40.340Z,1.10
2022-10-25T02:35:41.626Z,1.33
2022-10-25T02:36:43.026Z,1.10
2022-10-25T02:37:44.879Z,1.30
2022-10-25T02:38:47.308Z,1.10
2022-10-25T02:39:48.784Z,1.10
2022-10-25T02:40:50.194Z,1.13
2022-10-25T02:41:51.721Z,1.00
2022-10-25T02:42:53.023Z,1.00
2022-10-25T02:43:54.517Z,1.00
2022-10-25T02:44:55.802Z,1.13
2022-10-25T02:45:57.103Z,1.13
2022-10-25T02:46:58.459Z,1.20
2022-10-25T02:47:59.755Z,1.10
2022-10-25T02:49:01.083Z,1.20
2022-10-25T02:50:02.470Z,1.30
2022-10-25T02:51:04.822Z,1.03
2022-10-25T02:52:06.148Z,1.17
2022-10-25T02:53:07.446Z,1.07
2022-10-25T02:54:08.742Z,1.20
2022-10-25T02:55:10.175Z,1.10
2022-10-25T02:56:16.018Z,1.10
2022-10-25T02:57:17.376Z,1.23
2022-10-25T02:58:18.751Z,1.03
2022-10-25T02:59:21.169Z,1.10
2022-10-25T03:00:22.480Z,1.30
2022-10-25T03:01:24.360Z,1.20
2022-10-25T03:02:25.932Z,1.20
2022-10-25T03:03:28.162Z,1.30
2022-10-25T03:04:29.534Z,1.37
2022-10-25T03:05:30.824Z,1.53
2022-10-25T03:06:32.575Z,1.30
2022-10-25T03:07:33.852Z,1.30
2022-10-25T03:08:35.401Z,1.50
2022-10-25T03:09:36.673Z,1.33
2022-10-25T03:10:38.053Z,1.50
2022-10-25T03:11:39.431Z,1.40
2022-10-25T03:12:40.734Z,1.50
2022-10-25T03:13:42.185Z,1.20
2022-10-25T03:14:43.495Z,1.27
2022-10-25T03:15:45.286Z,1.57
2022-10-25T03:17:48.189Z,1.30
2022-10-25T03:18:49.719Z,1.60
2022-10-25T03:19:51.081Z,1.30
2022-10-25T03:20:52.385Z,1.40
2022-10-25T03:21:53.698Z,1.40
2022-10-25T03:22:55.036Z,1.20
2022-10-25T03:23:56.504Z,1.57
2022-10-25T03:24:57.901Z,1.30
2022-10-25T03:25:59.861Z,1.30
2022-10-25T03:27:02.163Z,1.33
2022-10-25T03:28:03.644Z,1.10
2022-10-25T03:29:04.961Z,1.23
2022-10-25T03:30:06.551Z,1.30
2022-10-25T03:31:11.752Z,1.40
2022-10-25T03:32:13.079Z,1.30
2022-10-25T03:33:14.623Z,1.13
2022-10-25T03:34:15.956Z,1.17
2022-10-25T03:35:17.400Z,1.30
2022-10-25T03:36:18.760Z,1.27
2022-10-25T03:37:20.230Z,1.40
2022-10-25T03:38:21.920Z,1.60
2022-10-25T03:39:23.238Z,1.47
2022-10-25T03:40:24.537Z,1.60
2022-10-25T03:41:25.942Z,1.30
2022-10-25T03:42:27.252Z,1.50
2022-10-25T03:43:28.545Z,1.40
2022-10-25T03:44:29.887Z,1.53
2022-10-25T03:45:31.186Z,1.70
2022-10-25T03:46:32.481Z,1.33
2022-10-25T03:47:33.797Z,1.50
2022-10-25T03:48:35.172Z,1.60
2022-10-25T03:49:36.580Z,1.43
2022-10-25T03:50:38.022Z,1.50
2022-10-25T03:51:39.310Z,1.57
2022-10-25T03:52:40.877Z,1.50
2022-10-25T03:53:42.182Z,1.77
2022-10-25T03:54:43.556Z,1.53
2022-10-25T03:55:44.967Z,1.30
2022-10-25T03:56:46.303Z,1.37
2022-10-25T03:57:47.895Z,1.50
2022-10-25T03:58:49.445Z,1.90
2022-10-25T03:59:50.761Z,1.50
2022-10-25T04:00:52.109Z,1.50
2022-10-25T04:01:53.872Z,1.50
2022-10-25T04:03:00.885Z,1.53
2022-10-25T04:04:03.774Z,1.80
2022-10-25T04:05:05.561Z,1.40
2022-10-25T04:06:06.929Z,1.70
2022-10-25T04:07:08.318Z,1.70
2022-10-25T04:08:09.641Z,1.63
2022-10-25T04:09:10.942Z,2.03
2022-10-25T04:10:12.244Z,1.83
2022-10-25T04:11:13.548Z,1.70
2022-10-25T04:12:15.009Z,1.73
2022-10-25T04:13:16.381Z,1.70
2022-10-25T04:14:17.681Z,1.83
2022-10-25T04:15:19.204Z,2.03
2022-10-25T04:16:20.616Z,1.83
2022-10-25T04:17:21.954Z,1.70
2022-10-25T04:18:23.322Z,1.63
2022-10-25T04:19:24.634Z,1.77
2022-10-25T04:20:25.932Z,1.90
2022-10-25T04:21:27.541Z,2.00
2022-10-25T04:22:28.881Z,1.70
2022-10-25T04:23:31.286Z,1.90
2022-10-25T04:24:32.667Z,1.80
2022-10-25T04:25:34.208Z,2.00
2022-10-25T04:26:36.571Z,1.73
2022-10-25T04:27:38.002Z,1.60
2022-10-25T04:28:39.283Z,1.80
2022-10-25T04:29:40.577Z,1.80
2022-10-25T04:30:42.011Z,1.80
2022-10-25T04:31:43.283Z,1.97
2022-10-25T04:32:44.691Z,1.60
2022-10-25T04:33:49.450Z,1.80
2022-10-25T04:34:50.750Z,1.33
2022-10-25T04:35:52.761Z,1.70
2022-10-25T04:36:54.221Z,2.27
2022-10-25T04:37:57.142Z,1.97
2022-10-25T04:38:58.680Z,1.80
2022-10-25T04:40:00.073Z,1.80
2022-10-25T04:41:01.800Z,1.83
2022-10-25T04:42:03.246Z,1.70
2022-10-25T04:43:04.641Z,1.80
2022-10-25T04:44:05.958Z,2.17
2022-10-25T04:45:07.547Z,1.97
2022-10-25T04:46:08.890Z,1.77
2022-10-25T04:47:10.616Z,1.90
2022-10-25T04:48:11.941Z,1.90
2022-10-25T04:49:13.930Z,2.00
2022-10-25T04:50:15.308Z,1.90
2022-10-25T04:51:16.666Z,1.67
2022-10-25T04:52:19.230Z,1.70
2022-10-25T04:53:20.697Z,2.00
2022-10-25T04:54:21.996Z,2.23
2022-10-25T04:55:23.310Z,1.90
2022-10-25T04:56:24.747Z,2.20
2022-10-25T04:57:26.332Z,2.03
2022-10-25T04:58:31.215Z,2.00
2022-10-25T04:59:32.995Z,1.50
2022-10-25T05:00:34.310Z,1.70
2022-10-25T05:01:36.040Z,1.67
2022-10-25T05:02:37.502Z,1.47
2022-10-25T05:03:38.857Z,1.70
2022-10-25T05:04:40.243Z,1.97
2022-10-25T05:05:41.539Z,1.43
2022-10-25T05:06:42.843Z,1.80
2022-10-25T05:07:44.276Z,1.80
2022-10-25T05:08:46.801Z,2.00
2022-10-25T05:09:48.215Z,1.67
2022-10-25T05:10:55.410Z,1.43
2022-10-25T05:11:56.708Z,1.83
2022-10-25T05:12:58.104Z,2.07
2022-10-25T05:13:59.407Z,1.80
2022-10-25T05:15:00.708Z,1.63
2022-10-25T05:16:02.428Z,1.90
2022-10-25T05:17:03.709Z,1.90
2022-10-25T05:18:05.060Z,1.83
2022-10-25T05:19:06.371Z,1.73
2022-10-25T05:20:07.893Z,2.03
2022-10-25T05:21:09.699Z,2.00
2022-10-25T05:22:11.054Z,2.07
2022-10-25T05:23:12.694Z,1.83
2022-10-25T05:24:13.998Z,1.70
2022-10-25T05:25:15.574Z,2.10
2022-10-25T05:26:18.468Z,2.20
2022-10-25T05:27:19.753Z,1.87
2022-10-25T05:28:21.042Z,1.80
2022-10-25T05:29:22.392Z,2.67
2022-10-25T05:30:23.698Z,1.90
2022-10-25T05:31:29.140Z,2.13
2022-10-25T05:32:30.524Z,1.80
2022-10-25T05:33:32.364Z,1.70
2022-10-25T05:34:33.686Z,2.20
2022-10-25T05:35:35.004Z,1.80
2022-10-25T05:36:36.367Z,2.00
2022-10-25T05:37:37.769Z,2.37
2022-10-25T05:38:39.455Z,2.07
2022-10-25T05:39:40.861Z,1.80
2022-10-25T05:40:42.192Z,2.07
2022-10-25T05:41:43.500Z,2.03
2022-10-25T05:42:45.085Z,2.13
2022-10-25T05:43:47.145Z,2.13
2022-10-25T05:44:48.500Z,2.17
2022-10-25T05:45:50.079Z,2.33
2022-10-25T05:46:51.755Z,2.30
2022-10-25T05:47:53.141Z,2.33
2022-10-25T05:48:54.520Z,2.50
2022-10-25T05:49:55.843Z,2.33
2022-10-25T05:51:20.944Z,2.50
2022-10-25T05:52:29.055Z,2.30
2022-10-25T05:53:30.332Z,2.00
2022-10-25T05:54:32.061Z,2.10
2022-10-25T05:55:34.005Z,2.37
2022-10-25T05:56:35.573Z,2.50
2022-10-25T05:57:36.965Z,2.10
2022-10-25T05:58:38.625Z,2.60
2022-10-25T05:59:39.949Z,2.00
2022-10-25T06:00:41.259Z,2.70
2022-10-25T06:01:46.735Z,2.10
2022-10-25T06:02:48.956Z,2.53
2022-10-25T06:03:51.183Z,2.83
2022-10-25T06:04:52.621Z,2.67
2022-10-25T06:05:53.985Z,2.77
2022-10-25T06:06:55.390Z,3.03
2022-10-25T06:07:56.750Z,2.60
2022-10-25T06:08:58.910Z,2.37
2022-10-25T06:10:00.417Z,3.40
2022-10-25T06:11:05.929Z,3.80
2022-10-25T06:12:09.541Z,4.23
2022-10-25T06:13:11.043Z,2.83
2022-10-25T06:14:12.445Z,2.97
2022-10-25T06:15:13.781Z,2.70
2022-10-25T06:16:16.180Z,2.77
2022-10-25T06:17:17.704Z,2.60
2022-10-25T06:18:19.131Z,2.40
2022-10-25T06:19:20.476Z,2.47
2022-10-25T06:20:21.859Z,2.23
2022-10-25T06:21:24.324Z,2.50
2022-10-25T06:22:25.639Z,2.40
2022-10-25T06:23:26.989Z,1.97
2022-10-25T06:24:28.404Z,2.30
2022-10-25T06:25:29.821Z,2.30
2022-10-25T06:26:31.245Z,2.27
2022-10-25T06:27:32.877Z,2.23
2022-10-25T06:28:35.274Z,2.07
2022-10-25T06:29:41.102Z,2.07
2022-10-25T06:30:42.405Z,2.17
2022-10-25T06:31:44.625Z,2.00
2022-10-25T06:32:46.346Z,2.57
2022-10-25T06:33:48.051Z,2.20
2022-10-25T06:34:49.363Z,2.30
2022-10-25T06:35:54.409Z,2.53
2022-10-25T06:36:55.758Z,2.27
2022-10-25T06:38:01.452Z,2.10
2022-10-25T06:39:05.298Z,2.13
2022-10-25T06:40:08.531Z,2.30
2022-10-25T06:41:11.693Z,2.20
2022-10-25T06:42:13.044Z,2.53
2022-10-25T06:43:15.415Z,2.73
2022-10-25T06:44:16.812Z,2.17
2022-10-25T06:45:18.122Z,2.70
2022-10-25T06:46:22.441Z,2.93
2022-10-25T06:47:23.870Z,2.57
2022-10-25T06:48:25.226Z,3.70
2022-10-25T06:49:26.552Z,2.93
2022-10-25T06:50:27.852Z,2.70
2022-10-25T06:51:29.579Z,2.60
2022-10-25T06:52:30.909Z,2.57
2022-10-25T06:53:32.448Z,2.50
2022-10-25T06:54:33.825Z,2.40
2022-10-25T06:55:35.254Z,2.57
2022-10-25T06:56:36.686Z,2.13
2022-10-25T06:57:37.996Z,2.30
2022-10-25T06:58:39.616Z,2.60
2022-10-25T06:59:40.934Z,2.43
2022-10-25T07:00:43.784Z,2.10
2022-10-25T07:01:47.630Z,2.30
2022-10-25T07:02:55.623Z,2.67
2022-10-25T07:03:57.016Z,2.07
2022-10-25T07:04:58.385Z,2.53
2022-10-25T07:06:00.203Z,2.67
2022-10-25T07:07:01.612Z,2.47
2022-10-25T07:08:02.910Z,2.70
2022-10-25T07:09:04.961Z,2.70
2022-10-25T07:10:06.455Z,2.50
2022-10-25T07:11:09.139Z,2.90
2022-10-25T07:12:12.775Z,2.57
2022-10-25T07:13:14.293Z,3.23
2022-10-25T07:14:15.694Z,2.67
2022-10-25T07:15:17.109Z,3.87
2022-10-25T07:16:19.782Z,3.80
2022-10-25T07:17:21.201Z,3.90
2022-10-25T07:18:22.568Z,3.93
2022-10-25T07:19:24.567Z,4.10
2022-10-25T07:20:25.884Z,4.90
2022-10-25T07:21:27.865Z,4.83
2022-10-25T07:22:29.162Z,4.57
2022-10-25T07:23:30.674Z,4.90
2022-10-25T07:24:32.017Z,4.47
2022-10-25T07:25:33.361Z,5.10
2022-10-25T07:26:34.861Z,4.00
2022-10-25T07:27:36.456Z,3.73
2022-10-25T07:28:40.602Z,3.20
2022-10-25T07:29:42.499Z,3.00
2022-10-25T07:30:45.049Z,2.77
2022-10-25T07:31:46.402Z,2.77
2022-10-25T07:32:47.785Z,2.60
2022-10-25T07:33:50.296Z,2.30
2022-10-25T07:34:51.640Z,2.30
2022-10-25T07:36:06.524Z,1.90
2022-10-25T07:37:11.703Z,2.20
2022-10-25T07:38:13.682Z,2.13
2022-10-25T07:39:14.964Z,1.87
2022-10-25T07:40:16.465Z,2.30
2022-10-25T07:41:17.831Z,2.03
2022-10-25T07:42:19.227Z,2.00
2022-10-25T07:43:20.539Z,1.97
2022-10-25T07:44:24.942Z,1.83
2022-10-25T07:45:28.885Z,1.97
2022-10-25T07:46:32.571Z,1.90
2022-10-25T07:47:34.001Z,2.20
2022-10-25T07:48:35.463Z,1.97
2022-10-25T07:49:36.914Z,1.60
2022-10-25T07:50:38.215Z,1.73
2022-10-25T07:51:39.498Z,1.90
2022-10-25T07:52:40.829Z,1.70
2022-10-25T07:53:42.264Z,2.50
2022-10-25T07:55:52.086Z,2.50
2022-10-25T07:56:53.480Z,2.20
2022-10-25T07:57:59.264Z,1.90
2022-10-25T07:59:00.572Z,1.83
2022-10-25T08:00:02.016Z,2.00
2022-10-25T08:01:07.146Z,2.03
2022-10-25T08:02:11.289Z,1.90
2022-10-25T08:03:13.133Z,1.83
2022-10-25T08:04:14.685Z,1.70
2022-10-25T08:05:16.159Z,1.90
2022-10-25T08:06:17.547Z,1.67
2022-10-25T08:07:18.850Z,1.77
2022-10-25T08:08:23.131Z,1.60
2022-10-25T08:09:37.599Z,1.80
2022-10-25T08:10:39.549Z,1.70
2022-10-25T08:11:40.960Z,1.80
2022-10-25T08:12:42.284Z,1.60
2022-10-25T08:13:43.592Z,2.13
2022-10-25T08:14:47.504Z,1.53
2022-10-25T08:15:51.935Z,1.87
2022-10-25T08:16:53.259Z,1.63
2022-10-25T08:17:58.770Z,1.67
2022-10-25T08:19:00.177Z,1.60
2022-10-25T08:20:01.554Z,1.77
2022-10-25T08:21:04.253Z,1.80
2022-10-25T08:22:06.013Z,1.63
2022-10-25T08:23:07.327Z,1.70
2022-10-25T08:24:08.760Z,1.73
2022-10-25T08:25:10.074Z,1.73
2022-10-25T08:26:11.469Z,1.90
2022-10-25T08:27:12.967Z,1.87
2022-10-25T08:28:14.334Z,1.70
2022-10-25T08:29:15.665Z,1.93
2022-10-25T08:30:17.038Z,1.93
2022-10-25T08:31:18.369Z,1.63
2022-10-25T08:32:19.685Z,1.70
2022-10-25T08:33:21.052Z,1.80
2022-10-25T08:34:22.352Z,1.93
2022-10-25T08:35:23.678Z,1.97
2022-10-25T08:36:26.507Z,1.60
2022-10-25T08:37:27.817Z,1.63
2022-10-25T08:38:29.258Z,1.60
2022-10-25T08:39:30.556Z,2.23
2022-10-25T08:40:44.368Z,1.50
2022-10-25T08:41:56.041Z,1.60
2022-10-25T08:43:00.172Z,1.60
2022-10-25T08:44:16.939Z,1.63
2022-10-25T08:45:22.980Z,1.90
2022-10-25T08:46:53.753Z,1.47
2022-10-25T08:47:56.610Z,1.57
2022-10-25T08:49:05.457Z,1.67
2022-10-25T08:50:12.288Z,1.70
2022-10-25T08:51:33.884Z,1.80
2022-10-25T08:52:40.823Z,1.70
2022-10-25T08:53:45.217Z,1.73
2022-10-25T08:54:46.811Z,1.90
2022-10-25T08:56:04.947Z,1.63
2022-10-25T08:57:26.648Z,1.60
2022-10-25T08:58:40.154Z,1.47
2022-10-25T08:59:43.045Z,1.57
2022-10-25T09:00:45.412Z,2.00
2022-10-25T09:01:49.346Z,1.50
2022-10-25T09:02:57.656Z,2.00
2022-10-25T09:03:59.499Z,1.80
2022-10-25T09:05:00.845Z,2.17
2022-10-25T09:06:27.124Z,1.47
2022-10-25T09:07:42.882Z,2.23
2022-10-25T09:09:04.923Z,1.57
2022-10-25T09:10:09.052Z,1.50
2022-10-25T09:11:22.820Z,1.30
2022-10-25T09:12:31.186Z,1.60
2022-10-25T09:13:47.505Z,1.90
2022-10-25T09:15:04.024Z,1.70
2022-10-25T09:16:05.327Z,1.47
2022-10-25T09:17:12.157Z,1.83
2022-10-25T09:18:17.503Z,1.50
2022-10-25T09:19:32.198Z,1.73
2022-10-25T09:20:37.075Z,1.70
2022-10-25T09:21:43.015Z,1.37
2022-10-25T09:22:45.902Z,1.20
2022-10-25T09:23:53.207Z,1.50
2022-10-25T09:25:00.289Z,1.60
2022-10-25T09:26:11.533Z,1.50
2022-10-25T09:27:19.678Z,1.67
2022-10-25T09:28:39.455Z,1.80
2022-10-25T09:29:46.329Z,2.00
2022-10-25T09:30:48.330Z,1.70
2022-10-25T09:31:51.828Z,1.50
2022-10-25T09:33:01.181Z,1.50
2022-10-25T09:34:05.396Z,1.63
2022-10-25T09:35:13.686Z,1.77
2022-10-25T09:36:15.254Z,1.53
2022-10-25T09:37:17.765Z,1.70
2022-10-25T09:38:37.836Z,1.80
2022-10-25T09:39:42.906Z,1.40
2022-10-25T09:41:07.392Z,1.80
2022-10-25T09:42:20.873Z,1.60
2022-10-25T09:43:26.797Z,1.60
2022-10-25T09:44:39.212Z,1.80
2022-10-25T09:45:47.962Z,1.30
2022-10-25T09:46:54.041Z,1.73
2022-10-25T09:48:00.164Z,1.40
2022-10-25T09:49:05.725Z,1.33
2022-10-25T09:50:11.925Z,1.27
2022-10-25T09:51:24.407Z,1.50
2022-10-25T09:52:40.204Z,1.47
2022-10-25T09:53:42.642Z,1.50
2022-10-25T09:54:55.207Z,1.30
2022-10-25T09:56:00.880Z,1.67
2022-10-25T09:57:02.245Z,1.40
2022-10-25T09:58:03.732Z,1.90
2022-10-25T09:59:05.155Z,1.50
2022-10-25T10:00:06.922Z,1.53
2022-10-25T10:01:16.688Z,1.40
2022-10-25T10:02:23.062Z,1.43
2022-10-25T10:03:28.899Z,1.63
2022-10-25T10:04:37.197Z,1.50
2022-10-25T10:05:39.876Z,1.50
2022-10-25T10:06:42.214Z,1.50
2022-10-25T10:07:44.916Z,1.73
2022-10-25T10:08:51.669Z,2.00
2022-10-25T10:09:55.718Z,1.50
2022-10-25T10:10:57.834Z,1.40
2022-10-25T10:12:00.072Z,1.70
2022-10-25T10:13:20.241Z,1.83
2022-10-25T10:14:25.926Z,1.47
2022-10-25T10:15:31.622Z,1.80
2022-10-25T10:16:38.449Z,1.20
2022-10-25T10:17:39.940Z,1.37
2022-10-25T10:18:41.879Z,1.50
2022-10-25T10:19:43.996Z,1.70
2022-10-25T10:21:03.995Z,1.83
2022-10-25T10:22:12.215Z,1.70
2022-10-25T10:23:13.949Z,1.67
2022-10-25T10:24:18.369Z,1.57
2022-10-25T10:25:25.737Z,1.33
2022-10-25T10:26:43.176Z,1.63
2022-10-25T10:27:46.511Z,1.40
2022-10-25T10:28:49.254Z,1.53
2022-10-25T10:29:50.545Z,1.30
2022-10-25T10:30:53.174Z,1.70
2022-10-25T10:31:59.443Z,1.83
2022-10-25T10:33:01.472Z,1.50
2022-10-25T10:34:02.865Z,1.40
2022-10-25T10:35:06.204Z,1.40
2022-10-25T10:36:20.965Z,1.23
2022-10-25T10:37:23.384Z,1.10
2022-10-25T10:38:26.311Z,1.37
2022-10-25T10:39:27.700Z,1.50
2022-10-25T10:40:29.069Z,2.40
2022-10-25T10:41:30.493Z,1.20
2022-10-25T10:42:35.349Z,1.27
2022-10-25T10:43:36.766Z,1.40
2022-10-25T10:44:38.291Z,1.23
2022-10-25T10:45:48.620Z,1.83
2022-10-25T10:46:50.018Z,1.47
2022-10-25T10:47:52.701Z,1.10
2022-10-25T10:48:57.828Z,1.37
2022-10-25T10:49:59.705Z,1.10
2022-10-25T10:51:01.382Z,1.20
2022-10-25T10:52:03.654Z,1.70
2022-10-25T10:53:21.526Z,1.30
2022-10-25T10:54:24.629Z,1.50
2022-10-25T10:55:33.638Z,1.63
2022-10-25T10:56:34.940Z,8.50
2022-10-25T10:57:36.417Z,5.83
2022-10-25T10:58:39.073Z,2.73
2022-10-25T10:59:44.740Z,1.90
2022-10-25T11:00:51.938Z,1.40
2022-10-25T11:01:53.407Z,1.17
2022-10-25T11:04:00.129Z,1.50
2022-10-25T11:05:17.939Z,1.57
2022-10-25T11:06:25.005Z,1.60
2022-10-25T11:07:31.392Z,1.33
2022-10-25T11:08:32.928Z,1.40
2022-10-25T11:09:34.239Z,1.37
2022-10-25T11:10:36.312Z,1.77
2022-10-25T11:11:37.903Z,1.20
2022-10-25T11:12:41.329Z,1.40
2022-10-25T11:13:50.009Z,1.33
2022-10-25T11:14:51.337Z,1.63
2022-10-25T11:15:52.627Z,1.30
2022-10-25T11:16:57.324Z,1.00
2022-10-25T11:18:00.848Z,3.47
2022-10-25T11:19:07.238Z,2.47
2022-10-25T11:20:14.384Z,1.57
2022-10-25T11:21:28.055Z,1.33
2022-10-25T11:22:33.127Z,1.40
2022-10-25T11:23:37.398Z,1.57
2022-10-25T11:24:53.823Z,1.30
2022-10-25T11:26:11.163Z,1.43
2022-10-25T11:27:12.500Z,1.60
2022-10-25T11:28:21.530Z,1.40
2022-10-25T11:29:37.438Z,1.20
2022-10-25T11:30:54.110Z,1.47
2022-10-25T11:31:55.455Z,1.37
2022-10-25T11:33:05.745Z,1.33
2022-10-25T11:34:09.214Z,1.57
2022-10-25T11:35:29.830Z,1.20
2022-10-25T11:36:42.407Z,1.00
2022-10-25T11:37:51.501Z,1.30
2022-10-25T11:38:59.033Z,1.30
2022-10-25T11:40:06.710Z,2.07
2022-10-25T11:41:26.015Z,1.93
2022-10-25T11:42:50.039Z,2.20
2022-10-25T11:43:57.405Z,1.60
2022-10-25T11:45:04.915Z,1.63
2022-10-25T11:46:20.514Z,1.33
2022-10-25T11:47:21.970Z,1.40
2022-10-25T11:48:23.337Z,1.50
2022-10-25T11:49:27.817Z,1.40
2022-10-25T11:50:41.341Z,1.10
2022-10-25T11:51:48.720Z,1.23
2022-10-25T11:52:58.831Z,1.30
2022-10-25T11:54:00.200Z,1.60
2022-10-25T11:55:04.322Z,1.53
2022-10-25T11:56:09.453Z,1.60
2022-10-25T11:57:36.405Z,1.67
2022-10-25T11:58:45.280Z,0.97
2022-10-25T12:00:00.763Z,1.40
2022-10-25T12:01:08.511Z,1.40
2022-10-25T12:02:20.880Z,1.17
2022-10-25T12:03:34.579Z,1.60
2022-10-25T12:04:42.050Z,1.40
2022-10-25T12:05:46.766Z,1.40
2022-10-25T12:06:55.260Z,1.60
2022-10-25T12:08:16.831Z,1.30
2022-10-25T12:09:18.168Z,1.37
2022-10-25T12:10:34.508Z,1.70
2022-10-25T12:11:47.227Z,1.80
2022-10-25T12:12:54.388Z,1.40
2022-10-25T12:13:58.817Z,1.40
2022-10-25T12:15:00.664Z,1.30
2022-10-25T12:16:03.472Z,1.40
2022-10-25T12:17:07.405Z,1.43
2022-10-25T12:18:14.222Z,1.10
2022-10-25T12:19:23.069Z,1.20
2022-10-25T12:20:26.423Z,1.10
2022-10-25T12:21:31.147Z,1.40
2022-10-25T12:22:32.547Z,1.20
2022-10-25T12:23:41.564Z,1.43
2022-10-25T12:24:49.713Z,1.27
2022-10-25T12:26:01.957Z,1.20
2022-10-25T12:27:03.629Z,1.00
2022-10-25T12:28:11.630Z,1.70
2022-10-25T12:29:15.848Z,1.10
2022-10-25T12:30:18.071Z,1.30
2022-10-25T12:31:21.894Z,1.40
2022-10-25T12:32:43.521Z,1.13
2022-10-25T12:33:44.910Z,1.47
2022-10-25T12:34:55.756Z,1.23
2022-10-25T12:35:59.688Z,1.10
2022-10-25T12:37:11.630Z,1.30
2022-10-25T12:38:17.606Z,1.50
2022-10-25T12:39:25.116Z,1.30
2022-10-25T12:40:28.656Z,1.37
2022-10-25T12:41:32.590Z,1.60
2022-10-25T12:42:41.859Z,1.50
2022-10-25T12:43:43.176Z,1.53
2022-10-25T12:44:56.988Z,1.33
2022-10-25T12:46:17.265Z,1.50
2022-10-25T12:47:18.702Z,1.53
2022-10-25T12:48:35.518Z,1.50
2022-10-25T12:49:57.150Z,1.73
2022-10-25T12:51:16.599Z,1.00
2022-10-25T12:52:23.433Z,1.60
2022-10-25T12:53:43.586Z,1.43
2022-10-25T12:55:03.991Z,1.27
2022-10-25T12:56:14.561Z,1.13
2022-10-25T12:57:17.659Z,1.20
2022-10-25T12:58:27.324Z,1.20
2022-10-25T12:59:31.770Z,0.90
2022-10-25T13:00:52.005Z,0.97
2022-10-25T13:02:12.301Z,1.20
2022-10-25T13:03:30.528Z,1.23
2022-10-25T13:04:37.953Z,1.20
2022-10-25T13:05:51.974Z,1.13
2022-10-25T13:06:53.926Z,1.33
2022-10-25T13:07:57.150Z,1.10
2022-10-25T13:09:03.887Z,0.97
2022-10-25T13:10:19.942Z,2.00
2022-10-25T13:11:31.606Z,1.90
2022-10-25T13:12:33.252Z,1.10
2022-10-25T13:13:39.045Z,1.30
2022-10-25T13:14:45.455Z,1.30
2022-10-25T13:15:48.461Z,1.20
2022-10-25T13:16:50.252Z,1.63
2022-10-25T13:18:05.209Z,1.70
2022-10-25T13:19:30.672Z,1.40
2022-10-25T13:20:45.082Z,2.35
2022-10-25T13:21:53.322Z,2.00
2022-10-25T13:22:54.932Z,2.27
2022-10-25T13:23:59.194Z,1.55
2022-10-25T13:25:01.392Z,1.38
2022-10-25T13:26:05.417Z,1.38
2022-10-25T13:27:12.713Z,1.20
2022-10-25T13:28:14.017Z,1.88
2022-10-25T13:29:34.104Z,1.38
2022-10-25T13:30:35.550Z,1.07
2022-10-25T13:31:37.030Z,1.73
2022-10-25T13:32:39.614Z,1.60
2022-10-25T13:33:41.159Z,1.67
2022-10-25T13:34:42.561Z,1.83
2022-10-25T13:35:43.945Z,1.40
2022-10-25T13:36:46.961Z,1.48
2022-10-25T13:37:55.275Z,2.45
2022-10-25T13:39:04.232Z,1.67
2022-10-25T13:40:32.064Z,1.50
2022-10-25T13:41:43.242Z,1.30
2022-10-25T13:42:46.481Z,1.60
2022-10-25T13:44:00.266Z,1.40
2022-10-25T13:45:04.603Z,2.07
2022-10-25T13:46:06.144Z,1.60
2022-10-25T13:47:26.599Z,1.60
2022-10-25T13:48:30.067Z,1.43
2022-10-25T13:49:31.811Z,1.30
2022-10-25T13:50:41.144Z,2.23
2022-10-25T13:51:42.598Z,2.20
2022-10-25T13:52:45.909Z,2.07
2022-10-25T13:53:51.865Z,1.47
2022-10-25T13:54:54.861Z,1.73
2022-10-25T13:55:58.106Z,1.70
2022-10-25T13:56:59.421Z,1.30
2022-10-25T13:58:01.398Z,1.10
2022-10-25T13:59:03.227Z,1.10
2022-10-25T14:00:10.497Z,1.40
2022-10-25T14:01:16.830Z,1.50
2022-10-25T14:02:19.485Z,1.90
2022-10-25T14:03:20.884Z,1.50
2022-10-25T14:04:22.164Z,1.50
2022-10-25T14:05:42.585Z,2.13
2022-10-25T14:06:43.957Z,1.30
2022-10-25T14:07:46.202Z,1.40
2022-10-25T14:08:51.195Z,1.17
2022-10-25T14:09:53.285Z,1.60
2022-10-25T14:10:55.664Z,1.73
2022-10-25T14:12:05.574Z,1.70
2022-10-25T14:13:16.318Z,1.83
2022-10-25T14:14:32.541Z,1.73
2022-10-25T14:15:39.062Z,1.37
2022-10-25T14:16:55.527Z,1.40
2022-10-25T14:17:58.202Z,1.47
2022-10-25T14:19:02.957Z,1.50
2022-10-25T14:20:08.576Z,1.37
2022-10-25T14:21:11.292Z,1.40
2022-10-25T14:22:22.715Z,1.10
2022-10-25T14:23:26.546Z,1.50
2022-10-25T14:24:28.035Z,1.50
2022-10-25T14:25:35.133Z,1.77
2022-10-25T14:26:36.447Z,1.50